sensor_id;sensor_type;location;lat;lon;timestamp;P1;durP1;ratioP1;P2;durP2;ratioP2
38457;SDS011;24239;48.058;10.486;2024-02-23T00:00:44;1.27;;;1.17;;
38457;SDS011;24239;48.058;10.486;2024-02-23T00:03:29;1.00;;;1.00;;
38457;SDS011;24239;48.058;10.486;2024-02-23T00:06:15;1.48;;;1.20;;
38457;SDS011;24239;48.058;10.486;2024-02-23T00:09:01;1.73;;;1.10;;
38457;SDS011;24239;48.058;10.486;2024-02-23T00:11:47;1.10;;;1.10;;
38457;SDS011;24239;48.058;10.486;2024-02-23T00:14:34;1.10;;;1.00;;
38457;SDS011;24239;48.058;10.486;2024-02-23T00:17:23;1.05;;;1.05;;
38457;SDS011;24239;48.058;10.486;2024-02-23T00:20:09;1.65;;;1.00;;
38457;SDS011;24239;48.058;10.486;2024-02-23T00:22:56;1.00;;;1.00;;
38457;SDS011;24239;48.058;10.486;2024-02-23T00:25:42;1.15;;;1.08;;
38457;SDS011;24239;48.058;10.486;2024-02-23T00:28:28;1.10;;;1.10;;
38457;SDS011;24239;48.058;10.486;2024-02-23T00:31:13;1.15;;;1.10;;
38457;SDS011;24239;48.058;10.486;2024-02-23T00:33:59;1.10;;;1.10;;
38457;SDS011;24239;48.058;10.486;2024-02-23T00:36:45;1.00;;;1.00;;
38457;SDS011;24239;48.058;10.486;2024-02-23T00:39:30;1.00;;;1.00;;
38457;SDS011;24239;48.058;10.486;2024-02-23T00:42:17;1.00;;;1.00;;
38457;SDS011;24239;48.058;10.486;2024-02-23T00:45:04;1.10;;;1.10;;
38457;SDS011;24239;48.058;10.486;2024-02-23T00:47:50;1.00;;;1.00;;
38457;SDS011;24239;48.058;10.486;2024-02-23T00:50:36;1.10;;;1.10;;
38457;SDS011;24239;48.058;10.486;2024-02-23T00:53:22;1.00;;;1.00;;
38457;SDS011;24239;48.058;10.486;2024-02-23T00:56:08;1.70;;;1.10;;
38457;SDS011;24239;48.058;10.486;2024-02-23T00:58:53;1.00;;;1.00;;
38457;SDS011;24239;48.058;10.486;2024-02-23T01:01:39;1.08;;;1.00;;
38457;SDS011;24239;48.058;10.486;2024-02-23T01:04:25;1.10;;;1.10;;
38457;SDS011;24239;48.058;10.486;2024-02-23T01:07:11;1.20;;;1.10;;
38457;SDS011;24239;48.058;10.486;2024-02-23T01:09:56;1.30;;;1.20;;
38457;SDS011;24239;48.058;10.486;2024-02-23T01:12:44;2.47;;;1.10;;
38457;SDS011;24239;48.058;10.486;2024-02-23T01:15:29;2.58;;;1.00;;
38457;SDS011;24239;48.058;10.486;2024-02-23T01:18:15;1.00;;;1.00;;
38457;SDS011;24239;48.058;10.486;2024-02-23T01:21:01;1.05;;;1.05;;
38457;SDS011;24239;48.058;10.486;2024-02-23T01:23:46;1.00;;;1.00;;
38457;SDS011;24239;48.058;10.486;2024-02-23T01:26:32;1.10;;;1.10;;
38457;SDS011;24239;48.058;10.486;2024-02-23T01:29:18;1.00;;;1.00;;
38457;SDS011;24239;48.058;10.486;2024-02-23T01:32:03;1.20;;;1.20;;
38457;SDS011;24239;48.058;10.486;2024-02-23T01:34:50;1.30;;;1.20;;
38457;SDS011;24239;48.058;10.486;2024-02-23T01:37:35;1.33;;;1.33;;
38457;SDS011;24239;48.058;10.486;2024-02-23T01:40:21;1.02;;;1.02;;
38457;SDS011;24239;48.058;10.486;2024-02-23T01:43:07;2.42;;;2.22;;
38457;SDS011;24239;48.058;10.486;2024-02-23T01:45:52;1.20;;;1.20;;
38457;SDS011;24239;48.058;10.486;2024-02-23T01:48:39;1.10;;;1.10;;
38457;SDS011;24239;48.058;10.486;2024-02-23T01:51:24;1.20;;;1.10;;
38457;SDS011;24239;48.058;10.486;2024-02-23T01:54:10;1.10;;;1.10;;
38457;SDS011;24239;48.058;10.486;2024-02-23T01:56:56;1.00;;;1.00;;
38457;SDS011;24239;48.058;10.486;2024-02-23T01:59:43;1.10;;;1.10;;
38457;SDS011;24239;48.058;10.486;2024-02-23T02:02:29;1.10;;;1.10;;
38457;SDS011;24239;48.058;10.486;2024-02-23T02:05:15;1.13;;;1.13;;
38457;SDS011;24239;48.058;10.486;2024-02-23T02:08:01;2.15;;;1.20;;
38457;SDS011;24239;48.058;10.486;2024-02-23T02:10:47;1.30;;;1.30;;
38457;SDS011;24239;48.058;10.486;2024-02-23T02:13:32;1.95;;;1.13;;
38457;SDS011;24239;48.058;10.486;2024-02-23T02:16:18;1.10;;;1.10;;
38457;SDS011;24239;48.058;10.486;2024-02-23T02:19:04;1.10;;;1.10;;
38457;SDS011;24239;48.058;10.486;2024-02-23T02:21:49;1.67;;;1.23;;
38457;SDS011;24239;48.058;10.486;2024-02-23T02:24:35;1.27;;;1.20;;
38457;SDS011;24239;48.058;10.486;2024-02-23T02:27:21;1.20;;;1.20;;
38457;SDS011;24239;48.058;10.486;2024-02-23T02:30:07;1.20;;;1.20;;
38457;SDS011;24239;48.058;10.486;2024-02-23T02:32:54;2.05;;;1.20;;
38457;SDS011;24239;48.058;10.486;2024-02-23T02:35:39;4.43;;;1.23;;
38457;SDS011;24239;48.058;10.486;2024-02-23T02:38:25;1.20;;;1.20;;
38457;SDS011;24239;48.058;10.486;2024-02-23T02:41:11;2.17;;;1.20;;
38457;SDS011;24239;48.058;10.486;2024-02-23T02:43:57;1.10;;;1.10;;
38457;SDS011;24239;48.058;10.486;2024-02-23T02:46:45;1.10;;;1.10;;
38457;SDS011;24239;48.058;10.486;2024-02-23T02:49:31;1.20;;;1.20;;
38457;SDS011;24239;48.058;10.486;2024-02-23T02:52:17;1.13;;;1.13;;
38457;SDS011;24239;48.058;10.486;2024-02-23T02:55:03;1.30;;;1.20;;
38457;SDS011;24239;48.058;10.486;2024-02-23T02:57:49;1.40;;;1.30;;
38457;SDS011;24239;48.058;10.486;2024-02-23T03:00:34;1.13;;;1.13;;
38457;SDS011;24239;48.058;10.486;2024-02-23T03:03:20;1.30;;;1.20;;
38457;SDS011;24239;48.058;10.486;2024-02-23T03:06:07;1.70;;;1.60;;
38457;SDS011;24239;48.058;10.486;2024-02-23T03:08:53;1.23;;;1.23;;
38457;SDS011;24239;48.058;10.486;2024-02-23T03:11:39;1.45;;;1.40;;
38457;SDS011;24239;48.058;10.486;2024-02-23T03:14:25;1.30;;;1.30;;
38457;SDS011;24239;48.058;10.486;2024-02-23T03:17:10;1.40;;;1.40;;
38457;SDS011;24239;48.058;10.486;2024-02-23T03:19:56;1.23;;;1.23;;
38457;SDS011;24239;48.058;10.486;2024-02-23T03:22:43;1.35;;;1.30;;
38457;SDS011;24239;48.058;10.486;2024-02-23T03:25:29;1.40;;;1.30;;
38457;SDS011;24239;48.058;10.486;2024-02-23T03:28:14;1.77;;;1.40;;
38457;SDS011;24239;48.058;10.486;2024-02-23T03:31:00;1.25;;;1.25;;
38457;SDS011;24239;48.058;10.486;2024-02-23T03:33:46;1.20;;;1.20;;
38457;SDS011;24239;48.058;10.486;2024-02-23T03:36:31;1.30;;;1.30;;
38457;SDS011;24239;48.058;10.486;2024-02-23T03:39:17;2.28;;;1.30;;
38457;SDS011;24239;48.058;10.486;2024-02-23T03:42:03;1.20;;;1.20;;
38457;SDS011;24239;48.058;10.486;2024-02-23T03:44:49;1.20;;;1.20;;
38457;SDS011;24239;48.058;10.486;2024-02-23T03:47:35;2.28;;;2.17;;
38457;SDS011;24239;48.058;10.486;2024-02-23T03:50:21;2.15;;;1.55;;
38457;SDS011;24239;48.058;10.486;2024-02-23T03:53:07;1.52;;;1.50;;
38457;SDS011;24239;48.058;10.486;2024-02-23T03:55:52;1.40;;;1.40;;
38457;SDS011;24239;48.058;10.486;2024-02-23T03:58:38;1.50;;;1.40;;
38457;SDS011;24239;48.058;10.486;2024-02-23T04:01:24;1.30;;;1.30;;
38457;SDS011;24239;48.058;10.486;2024-02-23T04:04:10;3.00;;;1.30;;
38457;SDS011;24239;48.058;10.486;2024-02-23T04:06:55;2.15;;;1.40;;
38457;SDS011;24239;48.058;10.486;2024-02-23T04:09:41;1.30;;;1.30;;
38457;SDS011;24239;48.058;10.486;2024-02-23T04:12:27;1.30;;;1.30;;
38457;SDS011;24239;48.058;10.486;2024-02-23T04:15:12;1.58;;;1.30;;
38457;SDS011;24239;48.058;10.486;2024-02-23T04:17:58;1.25;;;1.25;;
38457;SDS011;24239;48.058;10.486;2024-02-23T04:20:44;1.42;;;1.33;;
38457;SDS011;24239;48.058;10.486;2024-02-23T04:23:30;1.30;;;1.30;;
38457;SDS011;24239;48.058;10.486;2024-02-23T04:26:16;1.30;;;1.30;;
38457;SDS011;24239;48.058;10.486;2024-02-23T04:29:01;1.20;;;1.20;;
38457;SDS011;24239;48.058;10.486;2024-02-23T04:31:47;1.48;;;1.30;;
38457;SDS011;24239;48.058;10.486;2024-02-23T04:34:33;1.30;;;1.30;;
38457;SDS011;24239;48.058;10.486;2024-02-23T04:37:20;1.30;;;1.30;;
38457;SDS011;24239;48.058;10.486;2024-02-23T04:40:05;1.30;;;1.27;;
38457;SDS011;24239;48.058;10.486;2024-02-23T04:42:52;1.30;;;1.30;;
38457;SDS011;24239;48.058;10.486;2024-02-23T04:45:38;1.30;;;1.30;;
38457;SDS011;24239;48.058;10.486;2024-02-23T04:48:24;1.35;;;1.35;;
38457;SDS011;24239;48.058;10.486;2024-02-23T04:51:10;1.30;;;1.30;;
38457;SDS011;24239;48.058;10.486;2024-02-23T04:53:55;1.30;;;1.30;;
38457;SDS011;24239;48.058;10.486;2024-02-23T04:56:41;1.25;;;1.20;;
38457;SDS011;24239;48.058;10.486;2024-02-23T04:59:27;2.03;;;1.50;;
38457;SDS011;24239;48.058;10.486;2024-02-23T05:02:13;1.63;;;1.52;;
38457;SDS011;24239;48.058;10.486;2024-02-23T05:04:59;1.45;;;1.40;;
38457;SDS011;24239;48.058;10.486;2024-02-23T05:07:46;1.50;;;1.40;;
38457;SDS011;24239;48.058;10.486;2024-02-23T05:10:31;2.45;;;1.67;;
38457;SDS011;24239;48.058;10.486;2024-02-23T05:13:17;2.15;;;1.88;;
38457;SDS011;24239;48.058;10.486;2024-02-23T05:16:03;2.20;;;2.00;;
38457;SDS011;24239;48.058;10.486;2024-02-23T05:18:49;5.30;;;2.47;;
38457;SDS011;24239;48.058;10.486;2024-02-23T05:21:35;2.95;;;2.00;;
38457;SDS011;24239;48.058;10.486;2024-02-23T05:24:21;2.20;;;2.00;;
38457;SDS011;24239;48.058;10.486;2024-02-23T05:27:07;1.40;;;1.40;;
38457;SDS011;24239;48.058;10.486;2024-02-23T05:29:53;1.80;;;1.70;;
38457;SDS011;24239;48.058;10.486;2024-02-23T05:32:38;2.15;;;1.80;;
38457;SDS011;24239;48.058;10.486;2024-02-23T05:35:24;1.60;;;1.50;;
38457;SDS011;24239;48.058;10.486;2024-02-23T05:38:11;6.22;;;1.95;;
38457;SDS011;24239;48.058;10.486;2024-02-23T05:40:57;2.58;;;2.47;;
38457;SDS011;24239;48.058;10.486;2024-02-23T05:43:43;2.92;;;1.92;;
38457;SDS011;24239;48.058;10.486;2024-02-23T05:46:28;2.50;;;2.30;;
38457;SDS011;24239;48.058;10.486;2024-02-23T05:49:14;2.88;;;1.60;;
38457;SDS011;24239;48.058;10.486;2024-02-23T05:52:00;2.00;;;1.90;;
38457;SDS011;24239;48.058;10.486;2024-02-23T05:54:46;1.88;;;1.77;;
38457;SDS011;24239;48.058;10.486;2024-02-23T05:57:31;4.13;;;2.05;;
38457;SDS011;24239;48.058;10.486;2024-02-23T06:00:17;2.33;;;2.10;;
38457;SDS011;24239;48.058;10.486;2024-02-23T06:03:06;2.13;;;1.90;;
38457;SDS011;24239;48.058;10.486;2024-02-23T06:05:52;1.88;;;1.50;;
38457;SDS011;24239;48.058;10.486;2024-02-23T06:08:39;3.33;;;1.73;;
38457;SDS011;24239;48.058;10.486;2024-02-23T06:11:32;1.88;;;1.77;;
38457;SDS011;24239;48.058;10.486;2024-02-23T06:14:18;2.10;;;2.00;;
38457;SDS011;24239;48.058;10.486;2024-02-23T06:17:04;2.13;;;2.00;;
38457;SDS011;24239;48.058;10.486;2024-02-23T06:19:49;3.65;;;1.90;;
38457;SDS011;24239;48.058;10.486;2024-02-23T06:22:35;2.15;;;1.60;;
38457;SDS011;24239;48.058;10.486;2024-02-23T06:25:21;1.60;;;1.50;;
38457;SDS011;24239;48.058;10.486;2024-02-23T06:28:07;4.15;;;1.90;;
38457;SDS011;24239;48.058;10.486;2024-02-23T06:30:53;3.17;;;1.85;;
38457;SDS011;24239;48.058;10.486;2024-02-23T06:33:38;2.17;;;1.95;;
38457;SDS011;24239;48.058;10.486;2024-02-23T06:36:26;2.92;;;1.60;;
38457;SDS011;24239;48.058;10.486;2024-02-23T06:39:12;2.67;;;1.70;;
38457;SDS011;24239;48.058;10.486;2024-02-23T06:41:58;3.47;;;1.58;;
38457;SDS011;24239;48.058;10.486;2024-02-23T06:44:46;3.67;;;1.83;;
38457;SDS011;24239;48.058;10.486;2024-02-23T06:47:31;1.60;;;1.50;;
38457;SDS011;24239;48.058;10.486;2024-02-23T06:50:17;2.50;;;1.50;;
38457;SDS011;24239;48.058;10.486;2024-02-23T06:53:03;3.17;;;1.73;;
38457;SDS011;24239;48.058;10.486;2024-02-23T06:55:49;2.00;;;1.80;;
38457;SDS011;24239;48.058;10.486;2024-02-23T06:58:35;2.25;;;1.60;;
38457;SDS011;24239;48.058;10.486;2024-02-23T07:01:21;2.97;;;1.70;;
38457;SDS011;24239;48.058;10.486;2024-02-23T07:04:06;3.47;;;1.90;;
38457;SDS011;24239;48.058;10.486;2024-02-23T07:06:53;2.92;;;1.67;;
38457;SDS011;24239;48.058;10.486;2024-02-23T07:09:38;2.78;;;2.10;;
38457;SDS011;24239;48.058;10.486;2024-02-23T07:12:24;4.10;;;1.63;;
38457;SDS011;24239;48.058;10.486;2024-02-23T07:15:12;2.15;;;1.92;;
38457;SDS011;24239;48.058;10.486;2024-02-23T07:17:58;1.70;;;1.60;;
38457;SDS011;24239;48.058;10.486;2024-02-23T07:20:44;2.10;;;1.65;;
38457;SDS011;24239;48.058;10.486;2024-02-23T07:23:30;3.55;;;1.77;;
38457;SDS011;24239;48.058;10.486;2024-02-23T07:26:15;2.53;;;1.80;;
38457;SDS011;24239;48.058;10.486;2024-02-23T07:29:01;4.47;;;1.80;;
38457;SDS011;24239;48.058;10.486;2024-02-23T07:31:47;3.15;;;1.98;;
38457;SDS011;24239;48.058;10.486;2024-02-23T07:34:40;4.03;;;1.63;;
38457;SDS011;24239;48.058;10.486;2024-02-23T07:37:26;4.13;;;1.70;;
38457;SDS011;24239;48.058;10.486;2024-02-23T07:40:12;1.73;;;1.60;;
38457;SDS011;24239;48.058;10.486;2024-02-23T07:42:58;4.63;;;1.60;;
38457;SDS011;24239;48.058;10.486;2024-02-23T07:45:44;3.70;;;1.80;;
38457;SDS011;24239;48.058;10.486;2024-02-23T07:48:30;1.88;;;1.50;;
38457;SDS011;24239;48.058;10.486;2024-02-23T07:51:16;3.03;;;1.70;;
38457;SDS011;24239;48.058;10.486;2024-02-23T07:54:01;2.95;;;1.63;;
38457;SDS011;24239;48.058;10.486;2024-02-23T07:56:47;5.82;;;1.70;;
38457;SDS011;24239;48.058;10.486;2024-02-23T07:59:33;1.63;;;1.52;;
38457;SDS011;24239;48.058;10.486;2024-02-23T08:02:19;3.42;;;1.77;;
38457;SDS011;24239;48.058;10.486;2024-02-23T08:05:05;2.33;;;1.65;;
38457;SDS011;24239;48.058;10.486;2024-02-23T08:07:52;1.92;;;1.70;;
38457;SDS011;24239;48.058;10.486;2024-02-23T08:10:37;4.88;;;1.67;;
38457;SDS011;24239;48.058;10.486;2024-02-23T08:13:23;3.28;;;1.73;;
38457;SDS011;24239;48.058;10.486;2024-02-23T08:16:09;5.95;;;2.28;;
38457;SDS011;24239;48.058;10.486;2024-02-23T08:18:57;1.80;;;1.70;;
38457;SDS011;24239;48.058;10.486;2024-02-23T08:21:43;2.05;;;1.80;;
38457;SDS011;24239;48.058;10.486;2024-02-23T08:24:29;2.28;;;1.70;;
38457;SDS011;24239;48.058;10.486;2024-02-23T08:27:15;4.18;;;1.67;;
38457;SDS011;24239;48.058;10.486;2024-02-23T08:30:00;3.05;;;2.00;;
38457;SDS011;24239;48.058;10.486;2024-02-23T08:32:46;3.22;;;1.77;;
38457;SDS011;24239;48.058;10.486;2024-02-23T08:35:32;3.03;;;1.75;;
38457;SDS011;24239;48.058;10.486;2024-02-23T08:38:18;3.78;;;2.00;;
38457;SDS011;24239;48.058;10.486;2024-02-23T08:41:04;1.63;;;1.50;;
38457;SDS011;24239;48.058;10.486;2024-02-23T08:43:49;4.65;;;1.90;;
38457;SDS011;24239;48.058;10.486;2024-02-23T08:46:35;1.98;;;1.67;;
38457;SDS011;24239;48.058;10.486;2024-02-23T08:49:24;2.33;;;1.60;;
38457;SDS011;24239;48.058;10.486;2024-02-23T08:52:10;2.10;;;1.60;;
38457;SDS011;24239;48.058;10.486;2024-02-23T08:54:56;4.70;;;2.50;;
38457;SDS011;24239;48.058;10.486;2024-02-23T08:57:41;1.80;;;1.70;;
38457;SDS011;24239;48.058;10.486;2024-02-23T09:00:27;1.58;;;1.48;;
38457;SDS011;24239;48.058;10.486;2024-02-23T09:03:16;4.38;;;1.70;;
38457;SDS011;24239;48.058;10.486;2024-02-23T09:06:01;3.83;;;1.98;;
38457;SDS011;24239;48.058;10.486;2024-02-23T09:08:49;4.25;;;1.52;;
38457;SDS011;24239;48.058;10.486;2024-02-23T09:11:34;6.03;;;1.75;;
38457;SDS011;24239;48.058;10.486;2024-02-23T09:14:21;2.17;;;1.65;;
38457;SDS011;24239;48.058;10.486;2024-02-23T09:17:07;5.95;;;1.80;;
38457;SDS011;24239;48.058;10.486;2024-02-23T09:19:53;3.35;;;1.73;;
38457;SDS011;24239;48.058;10.486;2024-02-23T09:22:39;3.20;;;1.65;;
38457;SDS011;24239;48.058;10.486;2024-02-23T09:25:25;1.55;;;1.40;;
38457;SDS011;24239;48.058;10.486;2024-02-23T09:28:11;2.80;;;1.73;;
38457;SDS011;24239;48.058;10.486;2024-02-23T09:30:56;1.63;;;1.52;;
38457;SDS011;24239;48.058;10.486;2024-02-23T09:33:43;3.22;;;1.50;;
38457;SDS011;24239;48.058;10.486;2024-02-23T09:36:29;2.90;;;1.70;;
38457;SDS011;24239;48.058;10.486;2024-02-23T09:39:15;3.00;;;1.52;;
38457;SDS011;24239;48.058;10.486;2024-02-23T09:42:01;1.55;;;1.45;;
38457;SDS011;24239;48.058;10.486;2024-02-23T09:44:48;4.72;;;1.67;;
38457;SDS011;24239;48.058;10.486;2024-02-23T09:47:35;3.88;;;1.70;;
38457;SDS011;24239;48.058;10.486;2024-02-23T09:50:22;4.78;;;1.50;;
38457;SDS011;24239;48.058;10.486;2024-02-23T09:53:08;4.00;;;1.70;;
38457;SDS011;24239;48.058;10.486;2024-02-23T09:55:57;2.38;;;1.80;;
38457;SDS011;24239;48.058;10.486;2024-02-23T09:58:46;4.65;;;1.70;;
38457;SDS011;24239;48.058;10.486;2024-02-23T10:01:32;3.97;;;1.70;;
38457;SDS011;24239;48.058;10.486;2024-02-23T10:04:18;1.88;;;1.60;;
38457;SDS011;24239;48.058;10.486;2024-02-23T10:07:05;2.13;;;1.50;;
38457;SDS011;24239;48.058;10.486;2024-02-23T10:09:52;3.67;;;1.70;;
38457;SDS011;24239;48.058;10.486;2024-02-23T10:12:38;3.70;;;2.00;;
38457;SDS011;24239;48.058;10.486;2024-02-23T10:15:24;1.85;;;1.75;;
38457;SDS011;24239;48.058;10.486;2024-02-23T10:18:11;2.97;;;1.80;;
38457;SDS011;24239;48.058;10.486;2024-02-23T10:20:57;3.17;;;1.67;;
38457;SDS011;24239;48.058;10.486;2024-02-23T10:23:46;5.03;;;1.73;;
38457;SDS011;24239;48.058;10.486;2024-02-23T10:26:32;3.58;;;1.70;;
38457;SDS011;24239;48.058;10.486;2024-02-23T10:29:18;2.17;;;1.80;;
38457;SDS011;24239;48.058;10.486;2024-02-23T10:32:05;3.75;;;2.25;;
38457;SDS011;24239;48.058;10.486;2024-02-23T10:34:51;5.13;;;3.28;;
38457;SDS011;24239;48.058;10.486;2024-02-23T10:37:37;4.25;;;3.00;;
38457;SDS011;24239;48.058;10.486;2024-02-23T10:40:23;7.47;;;4.82;;
38457;SDS011;24239;48.058;10.486;2024-02-23T10:43:12;4.93;;;2.60;;
38457;SDS011;24239;48.058;10.486;2024-02-23T10:46:04;35.13;;;4.47;;
38457;SDS011;24239;48.058;10.486;2024-02-23T10:48:53;2.20;;;2.00;;
38457;SDS011;24239;48.058;10.486;2024-02-23T10:51:39;4.95;;;2.55;;
38457;SDS011;24239;48.058;10.486;2024-02-23T10:54:26;4.10;;;1.67;;
38457;SDS011;24239;48.058;10.486;2024-02-23T10:57:12;4.22;;;2.28;;
38457;SDS011;24239;48.058;10.486;2024-02-23T10:59:58;2.60;;;1.75;;
38457;SDS011;24239;48.058;10.486;2024-02-23T11:02:49;4.50;;;2.30;;
38457;SDS011;24239;48.058;10.486;2024-02-23T11:05:36;1.50;;;1.40;;
38457;SDS011;24239;48.058;10.486;2024-02-23T11:08:22;2.88;;;1.70;;
38457;SDS011;24239;48.058;10.486;2024-02-23T11:11:09;2.03;;;1.20;;
38457;SDS011;24239;48.058;10.486;2024-02-23T11:13:55;3.88;;;1.52;;
38457;SDS011;24239;48.058;10.486;2024-02-23T11:16:41;4.78;;;1.88;;
38457;SDS011;24239;48.058;10.486;2024-02-23T11:19:37;1.83;;;1.40;;
38457;SDS011;24239;48.058;10.486;2024-02-23T11:22:30;3.33;;;1.40;;
38457;SDS011;24239;48.058;10.486;2024-02-23T11:25:16;2.08;;;1.55;;
38457;SDS011;24239;48.058;10.486;2024-02-23T11:28:03;1.92;;;1.48;;
38457;SDS011;24239;48.058;10.486;2024-02-23T11:30:49;3.05;;;1.70;;
38457;SDS011;24239;48.058;10.486;2024-02-23T11:33:37;1.90;;;1.63;;
38457;SDS011;24239;48.058;10.486;2024-02-23T11:39:15;2.47;;;1.60;;
38457;SDS011;24239;48.058;10.486;2024-02-23T11:42:02;2.28;;;1.50;;
38457;SDS011;24239;48.058;10.486;2024-02-23T11:44:50;2.65;;;1.65;;
38457;SDS011;24239;48.058;10.486;2024-02-23T11:47:36;2.10;;;1.48;;
38457;SDS011;24239;48.058;10.486;2024-02-23T11:50:22;1.92;;;1.50;;
38457;SDS011;24239;48.058;10.486;2024-02-23T11:53:08;2.53;;;1.70;;
38457;SDS011;24239;48.058;10.486;2024-02-23T11:55:54;1.88;;;1.77;;
38457;SDS011;24239;48.058;10.486;2024-02-23T11:58:40;2.20;;;1.63;;
38457;SDS011;24239;48.058;10.486;2024-02-23T12:01:29;1.88;;;1.55;;
38457;SDS011;24239;48.058;10.486;2024-02-23T12:04:16;3.10;;;2.05;;
38457;SDS011;24239;48.058;10.486;2024-02-23T12:07:01;2.90;;;1.80;;
38457;SDS011;24239;48.058;10.486;2024-02-23T12:09:47;4.43;;;1.85;;
38457;SDS011;24239;48.058;10.486;2024-02-23T12:12:33;2.83;;;1.80;;
38457;SDS011;24239;48.058;10.486;2024-02-23T12:15:19;2.88;;;2.55;;
38457;SDS011;24239;48.058;10.486;2024-02-23T12:18:05;2.85;;;2.30;;
38457;SDS011;24239;48.058;10.486;2024-02-23T12:20:51;3.00;;;1.90;;
38457;SDS011;24239;48.058;10.486;2024-02-23T12:23:48;3.92;;;1.80;;
38457;SDS011;24239;48.058;10.486;2024-02-23T12:26:34;3.78;;;2.17;;
38457;SDS011;24239;48.058;10.486;2024-02-23T12:29:20;2.33;;;1.70;;
38457;SDS011;24239;48.058;10.486;2024-02-23T12:32:06;4.45;;;2.53;;
38457;SDS011;24239;48.058;10.486;2024-02-23T12:34:52;3.97;;;2.40;;
38457;SDS011;24239;48.058;10.486;2024-02-23T12:37:38;3.50;;;1.73;;
38457;SDS011;24239;48.058;10.486;2024-02-23T12:40:24;5.00;;;2.50;;
38457;SDS011;24239;48.058;10.486;2024-02-23T12:43:10;4.53;;;2.35;;
38457;SDS011;24239;48.058;10.486;2024-02-23T12:45:58;2.72;;;1.60;;
38457;SDS011;24239;48.058;10.486;2024-02-23T12:48:44;3.03;;;1.65;;
38457;SDS011;24239;48.058;10.486;2024-02-23T12:51:30;3.38;;;1.85;;
38457;SDS011;24239;48.058;10.486;2024-02-23T12:54:16;6.25;;;1.70;;
38457;SDS011;24239;48.058;10.486;2024-02-23T12:57:02;3.35;;;1.65;;
38457;SDS011;24239;48.058;10.486;2024-02-23T12:59:47;1.80;;;1.50;;
38457;SDS011;24239;48.058;10.486;2024-02-23T13:02:33;1.88;;;1.73;;
38457;SDS011;24239;48.058;10.486;2024-02-23T13:05:19;5.95;;;1.80;;
38457;SDS011;24239;48.058;10.486;2024-02-23T13:08:05;2.53;;;1.30;;
38457;SDS011;24239;48.058;10.486;2024-02-23T13:10:51;2.60;;;1.75;;
38457;SDS011;24239;48.058;10.486;2024-02-23T13:13:37;2.22;;;1.95;;
38457;SDS011;24239;48.058;10.486;2024-02-23T13:16:23;1.63;;;1.52;;
38457;SDS011;24239;48.058;10.486;2024-02-23T13:19:09;2.67;;;1.30;;
38457;SDS011;24239;48.058;10.486;2024-02-23T13:21:55;3.83;;;1.48;;
38457;SDS011;24239;48.058;10.486;2024-02-23T13:24:41;2.78;;;1.50;;
38457;SDS011;24239;48.058;10.486;2024-02-23T13:27:27;1.50;;;1.33;;
38457;SDS011;24239;48.058;10.486;2024-02-23T13:30:13;1.77;;;1.33;;
38457;SDS011;24239;48.058;10.486;2024-02-23T13:32:59;2.53;;;1.40;;
38457;SDS011;24239;48.058;10.486;2024-02-23T13:35:45;1.35;;;1.08;;
38457;SDS011;24239;48.058;10.486;2024-02-23T13:38:31;1.58;;;1.48;;
38457;SDS011;24239;48.058;10.486;2024-02-23T13:41:17;1.70;;;1.50;;
38457;SDS011;24239;48.058;10.486;2024-02-23T13:44:03;2.33;;;1.33;;
38457;SDS011;24239;48.058;10.486;2024-02-23T13:46:50;3.53;;;1.80;;
38457;SDS011;24239;48.058;10.486;2024-02-23T13:49:35;3.90;;;1.40;;
38457;SDS011;24239;48.058;10.486;2024-02-23T13:52:21;1.52;;;1.42;;
38457;SDS011;24239;48.058;10.486;2024-02-23T13:55:07;1.63;;;1.38;;
38457;SDS011;24239;48.058;10.486;2024-02-23T13:57:54;2.30;;;1.85;;
38457;SDS011;24239;48.058;10.486;2024-02-23T14:00:40;3.67;;;1.52;;
38457;SDS011;24239;48.058;10.486;2024-02-23T14:03:32;2.25;;;1.73;;
38457;SDS011;24239;48.058;10.486;2024-02-23T14:06:21;2.78;;;1.73;;
38457;SDS011;24239;48.058;10.486;2024-02-23T14:09:06;2.80;;;1.88;;
38457;SDS011;24239;48.058;10.486;2024-02-23T14:11:52;2.55;;;1.40;;
38457;SDS011;24239;48.058;10.486;2024-02-23T14:14:38;4.55;;;2.35;;
38457;SDS011;24239;48.058;10.486;2024-02-23T14:17:24;2.42;;;2.15;;
38457;SDS011;24239;48.058;10.486;2024-02-23T14:20:10;7.90;;;3.10;;
38457;SDS011;24239;48.058;10.486;2024-02-23T14:22:55;5.28;;;4.28;;
38457;SDS011;24239;48.058;10.486;2024-02-23T14:25:41;9.52;;;2.63;;
38457;SDS011;24239;48.058;10.486;2024-02-23T14:28:27;10.98;;;7.00;;
38457;SDS011;24239;48.058;10.486;2024-02-23T14:31:13;4.72;;;3.42;;
38457;SDS011;24239;48.058;10.486;2024-02-23T14:33:58;4.35;;;2.90;;
38457;SDS011;24239;48.058;10.486;2024-02-23T14:36:44;3.20;;;2.35;;
38457;SDS011;24239;48.058;10.486;2024-02-23T14:39:30;2.95;;;2.22;;
38457;SDS011;24239;48.058;10.486;2024-02-23T14:42:15;3.80;;;2.13;;
38457;SDS011;24239;48.058;10.486;2024-02-23T14:45:01;3.78;;;2.35;;
38457;SDS011;24239;48.058;10.486;2024-02-23T14:47:47;4.68;;;3.17;;
38457;SDS011;24239;48.058;10.486;2024-02-23T14:50:33;6.30;;;2.45;;
38457;SDS011;24239;48.058;10.486;2024-02-23T14:53:19;4.25;;;2.33;;
38457;SDS011;24239;48.058;10.486;2024-02-23T14:56:05;5.80;;;2.55;;
38457;SDS011;24239;48.058;10.486;2024-02-23T14:58:51;4.38;;;2.88;;
38457;SDS011;24239;48.058;10.486;2024-02-23T15:01:37;4.43;;;2.75;;
38457;SDS011;24239;48.058;10.486;2024-02-23T15:04:23;9.38;;;4.53;;
38457;SDS011;24239;48.058;10.486;2024-02-23T15:07:09;12.10;;;5.28;;
38457;SDS011;24239;48.058;10.486;2024-02-23T15:09:55;7.95;;;5.10;;
38457;SDS011;24239;48.058;10.486;2024-02-23T15:12:40;11.23;;;5.80;;
38457;SDS011;24239;48.058;10.486;2024-02-23T15:15:26;4.47;;;3.08;;
38457;SDS011;24239;48.058;10.486;2024-02-23T15:18:12;5.60;;;2.40;;
38457;SDS011;24239;48.058;10.486;2024-02-23T15:20:58;3.05;;;1.98;;
38457;SDS011;24239;48.058;10.486;2024-02-23T15:23:43;1.73;;;1.63;;
38457;SDS011;24239;48.058;10.486;2024-02-23T15:26:30;3.00;;;2.40;;
38457;SDS011;24239;48.058;10.486;2024-02-23T15:29:16;4.15;;;2.72;;
38457;SDS011;24239;48.058;10.486;2024-02-23T15:32:02;6.80;;;3.33;;
38457;SDS011;24239;48.058;10.486;2024-02-23T15:34:48;6.75;;;3.92;;
38457;SDS011;24239;48.058;10.486;2024-02-23T15:37:34;6.90;;;3.75;;
38457;SDS011;24239;48.058;10.486;2024-02-23T15:40:20;6.90;;;3.83;;
38457;SDS011;24239;48.058;10.486;2024-02-23T15:43:06;8.43;;;4.50;;
38457;SDS011;24239;48.058;10.486;2024-02-23T15:45:51;5.63;;;3.85;;
38457;SDS011;24239;48.058;10.486;2024-02-23T15:48:37;7.32;;;3.33;;
38457;SDS011;24239;48.058;10.486;2024-02-23T15:51:23;5.35;;;3.63;;
38457;SDS011;24239;48.058;10.486;2024-02-23T15:54:09;8.10;;;4.32;;
38457;SDS011;24239;48.058;10.486;2024-02-23T15:56:54;8.90;;;5.97;;
38457;SDS011;24239;48.058;10.486;2024-02-23T15:59:40;8.43;;;3.90;;
38457;SDS011;24239;48.058;10.486;2024-02-23T16:02:26;4.72;;;3.50;;
38457;SDS011;24239;48.058;10.486;2024-02-23T16:05:12;2.50;;;2.30;;
38457;SDS011;24239;48.058;10.486;2024-02-23T16:07:58;5.28;;;3.15;;
38457;SDS011;24239;48.058;10.486;2024-02-23T16:10:50;13.73;;;5.90;;
38457;SDS011;24239;48.058;10.486;2024-02-23T16:13:37;12.73;;;5.78;;
38457;SDS011;24239;48.058;10.486;2024-02-23T16:16:24;8.50;;;5.20;;
38457;SDS011;24239;48.058;10.486;2024-02-23T16:19:10;10.20;;;5.60;;
38457;SDS011;24239;48.058;10.486;2024-02-23T16:21:57;10.82;;;5.63;;
38457;SDS011;24239;48.058;10.486;2024-02-23T16:24:42;12.30;;;5.70;;
38457;SDS011;24239;48.058;10.486;2024-02-23T16:27:28;14.68;;;7.05;;